sensor_id;sensor_type;location;lat;lon;timestamp;pressure;altitude;pressure_sealevel;temperature;humidity
40994;BME280;26722;43.212;27.932;2023-04-15T00:00:02;55029.53;;;-146.72;53.84
40994;BME280;26722;43.212;27.932;2023-04-15T00:02:28;55056.97;;;-146.72;54.14
40994;BME280;26722;43.212;27.932;2023-04-15T00:04:53;55040.09;;;-146.72;53.77
40994;BME280;26722;43.212;27.932;2023-04-15T00:07:19;55023.19;;;-146.72;53.77
40994;BME280;26722;43.212;27.932;2023-04-15T00:09:44;55031.66;;;-146.72;53.78
40994;BME280;26722;43.212;27.932;2023-04-15T00:12:10;55042.19;;;-146.72;53.63
40994;BME280;26722;43.212;27.932;2023-04-15T00:14:36;55050.66;;;-146.72;53.51
40994;BME280;26722;43.212;27.932;2023-04-15T00:17:02;55035.88;;;-146.72;53.42
40994;BME280;26722;43.212;27.932;2023-04-15T00:19:29;55031.66;;;-146.72;53.48
40994;BME280;26722;43.212;27.932;2023-04-15T00:21:55;55023.19;;;-146.72;52.60
40994;BME280;26722;43.212;27.932;2023-04-15T00:24:20;55048.53;;;-146.72;52.79
40994;BME280;26722;43.212;27.932;2023-04-15T00:26:46;55035.88;;;-146.72;52.93
40994;BME280;26722;43.212;27.932;2023-04-15T00:29:12;55018.97;;;-146.72;52.14
40994;BME280;26722;43.212;27.932;2023-04-15T00:31:37;55063.31;;;-146.72;52.37
40994;BME280;26722;43.212;27.932;2023-04-15T00:34:03;55040.09;;;-146.72;53.71
40994;BME280;26722;43.212;27.932;2023-04-15T00:36:29;55048.53;;;-146.72;54.24
40994;BME280;26722;43.212;27.932;2023-04-15T00:38:54;55033.75;;;-146.72;54.12
40994;BME280;26722;43.212;27.932;2023-04-15T00:41:20;55040.09;;;-146.72;54.60
40994;BME280;26722;43.212;27.932;2023-04-15T00:43:47;55035.88;;;-146.72;55.01
40994;BME280;26722;43.212;27.932;2023-04-15T00:46:14;55061.19;;;-146.72;55.24
40994;BME280;26722;43.212;27.932;2023-04-15T00:48:40;55031.66;;;-146.72;55.16
40994;BME280;26722;43.212;27.932;2023-04-15T00:51:06;55046.41;;;-146.72;55.59
40994;BME280;26722;43.212;27.932;2023-04-15T00:53:33;55040.09;;;-146.72;55.60
40994;BME280;26722;43.212;27.932;2023-04-15T00:55:59;55031.66;;;-146.72;54.53
40994;BME280;26722;43.212;27.932;2023-04-15T00:58:25;55033.75;;;-146.72;53.87
40994;BME280;26722;43.212;27.932;2023-04-15T01:00:53;55023.19;;;-146.72;54.38
40994;BME280;26722;43.212;27.932;2023-04-15T01:03:19;55027.41;;;-146.72;54.88
40994;BME280;26722;43.212;27.932;2023-04-15T01:05:45;55027.41;;;-146.72;54.65
40994;BME280;26722;43.212;27.932;2023-04-15T01:08:11;55023.19;;;-146.72;54.37
40994;BME280;26722;43.212;27.932;2023-04-15T01:10:37;55048.53;;;-146.72;54.13
40994;BME280;26722;43.212;27.932;2023-04-15T01:13:04;55040.09;;;-146.72;53.97
40994;BME280;26722;43.212;27.932;2023-04-15T01:15:30;55035.88;;;-146.72;53.60
40994;BME280;26722;43.212;27.932;2023-04-15T01:17:57;55029.53;;;-146.72;53.56
40994;BME280;26722;43.212;27.932;2023-04-15T01:20:23;55035.88;;;-146.72;53.73
40994;BME280;26722;43.212;27.932;2023-04-15T01:22:49;55027.41;;;-146.72;54.57
40994;BME280;26722;43.212;27.932;2023-04-15T01:27:44;55035.88;;;-146.72;55.37
40994;BME280;26722;43.212;27.932;2023-04-15T01:30:10;55040.09;;;-146.72;55.90
40994;BME280;26722;43.212;27.932;2023-04-15T01:32:36;55035.88;;;-146.72;56.17
40994;BME280;26722;43.212;27.932;2023-04-15T01:35:02;55044.31;;;-146.72;55.73
40994;BME280;26722;43.212;27.932;2023-04-15T01:37:27;55044.31;;;-146.72;55.77
40994;BME280;26722;43.212;27.932;2023-04-15T01:39:53;55048.53;;;-146.72;56.28
40994;BME280;26722;43.212;27.932;2023-04-15T01:42:20;55037.97;;;-146.72;56.81
40994;BME280;26722;43.212;27.932;2023-04-15T01:44:46;55031.66;;;-146.72;56.95
40994;BME280;26722;43.212;27.932;2023-04-15T01:47:11;55023.19;;;-146.72;56.21
40994;BME280;26722;43.212;27.932;2023-04-15T01:49:37;55027.41;;;-146.72;54.79
40994;BME280;26722;43.212;27.932;2023-04-15T01:52:02;55040.09;;;-146.72;54.36
40994;BME280;26722;43.212;27.932;2023-04-15T01:54:28;55035.88;;;-146.72;54.13
40994;BME280;26722;43.212;27.932;2023-04-15T01:56:53;55040.09;;;-146.72;54.31
40994;BME280;26722;43.212;27.932;2023-04-15T01:59:19;55037.97;;;-146.72;54.81
40994;BME280;26722;43.212;27.932;2023-04-15T02:01:45;55035.88;;;-146.72;54.38
40994;BME280;26722;43.212;27.932;2023-04-15T02:04:10;55046.41;;;-146.72;54.22
40994;BME280;26722;43.212;27.932;2023-04-15T02:06:44;55029.53;;;-146.72;54.14
40994;BME280;26722;43.212;27.932;2023-04-15T02:09:10;55010.53;;;-146.72;53.53
40994;BME280;26722;43.212;27.932;2023-04-15T02:11:35;55031.66;;;-146.72;53.94
40994;BME280;26722;43.212;27.932;2023-04-15T02:14:04;55016.88;;;-146.72;54.00
40994;BME280;26722;43.212;27.932;2023-04-15T02:16:31;55044.31;;;-146.72;54.72
40994;BME280;26722;43.212;27.932;2023-04-15T02:18:57;55025.31;;;-146.72;54.80
40994;BME280;26722;43.212;27.932;2023-04-15T02:21:22;55052.75;;;-146.72;54.55
40994;BME280;26722;43.212;27.932;2023-04-15T02:23:48;55035.88;;;-146.72;54.60
40994;BME280;26722;43.212;27.932;2023-04-15T02:26:13;55037.97;;;-146.72;54.41
40994;BME280;26722;43.212;27.932;2023-04-15T02:28:39;55010.53;;;-146.72;54.56
40994;BME280;26722;43.212;27.932;2023-04-15T02:31:05;55018.97;;;-146.72;54.12
40994;BME280;26722;43.212;27.932;2023-04-15T02:33:31;55027.41;;;-146.72;54.50
40994;BME280;26722;43.212;27.932;2023-04-15T02:35:56;55014.75;;;-146.72;54.64
40994;BME280;26722;43.212;27.932;2023-04-15T02:38:23;55040.09;;;-146.72;54.29
40994;BME280;26722;43.212;27.932;2023-04-15T02:40:49;55044.31;;;-146.72;54.81
40994;BME280;26722;43.212;27.932;2023-04-15T02:43:15;55042.19;;;-146.72;54.96
40994;BME280;26722;43.212;27.932;2023-04-15T02:45:42;55033.75;;;-146.72;55.19
40994;BME280;26722;43.212;27.932;2023-04-15T02:48:08;55040.09;;;-146.72;56.05
40994;BME280;26722;43.212;27.932;2023-04-15T02:50:33;55002.09;;;-146.72;56.02
40994;BME280;26722;43.212;27.932;2023-04-15T02:52:59;55033.75;;;-146.72;56.48
40994;BME280;26722;43.212;27.932;2023-04-15T02:55:29;55023.19;;;-146.72;56.77
40994;BME280;26722;43.212;27.932;2023-04-15T02:57:55;55027.41;;;-146.72;56.87
40994;BME280;26722;43.212;27.932;2023-04-15T03:00:22;55052.75;;;-146.72;57.07
40994;BME280;26722;43.212;27.932;2023-04-15T03:02:49;55035.88;;;-146.72;57.07
40994;BME280;26722;43.212;27.932;2023-04-15T03:05:20;55031.66;;;-146.72;56.74
40994;BME280;26722;43.212;27.932;2023-04-15T03:07:49;55033.75;;;-146.72;56.80
40994;BME280;26722;43.212;27.932;2023-04-15T03:10:14;55035.88;;;-146.72;56.18
40994;BME280;26722;43.212;27.932;2023-04-15T03:12:39;55040.09;;;-146.72;56.90
40994;BME280;26722;43.212;27.932;2023-04-15T03:15:06;55035.88;;;-146.72;57.24
40994;BME280;26722;43.212;27.932;2023-04-15T03:17:32;55040.09;;;-146.72;56.64
40994;BME280;26722;43.212;27.932;2023-04-15T03:19:58;55056.97;;;-146.72;56.61
40994;BME280;26722;43.212;27.932;2023-04-15T03:22:23;55040.09;;;-146.72;56.39
40994;BME280;26722;43.212;27.932;2023-04-15T03:24:49;55040.09;;;-146.72;56.41
40994;BME280;26722;43.212;27.932;2023-04-15T03:27:14;55021.09;;;-146.72;56.28
40994;BME280;26722;43.212;27.932;2023-04-15T03:29:40;55037.97;;;-146.72;56.39
40994;BME280;26722;43.212;27.932;2023-04-15T03:32:05;55037.97;;;-146.72;56.36
40994;BME280;26722;43.212;27.932;2023-04-15T03:34:31;55031.66;;;-146.72;56.66
40994;BME280;26722;43.212;27.932;2023-04-15T03:36:56;55035.88;;;-146.72;56.38
40994;BME280;26722;43.212;27.932;2023-04-15T03:39:22;55040.09;;;-146.72;56.29
40994;BME280;26722;43.212;27.932;2023-04-15T03:41:47;55040.09;;;-146.72;57.25
40994;BME280;26722;43.212;27.932;2023-04-15T03:44:13;55037.97;;;-146.72;58.38
40994;BME280;26722;43.212;27.932;2023-04-15T03:46:38;55031.66;;;-146.72;58.44
40994;BME280;26722;43.212;27.932;2023-04-15T03:49:05;55048.53;;;-146.72;58.56
40994;BME280;26722;43.212;27.932;2023-04-15T03:51:31;55035.88;;;-146.72;58.07
40994;BME280;26722;43.212;27.932;2023-04-15T03:53:56;55042.19;;;-146.72;57.88
40994;BME280;26722;43.212;27.932;2023-04-15T03:56:23;55048.53;;;-146.72;56.96
40994;BME280;26722;43.212;27.932;2023-04-15T03:58:48;55042.19;;;-146.72;56.84
40994;BME280;26722;43.212;27.932;2023-04-15T04:01:14;55048.53;;;-146.72;56.43
40994;BME280;26722;43.212;27.932;2023-04-15T04:03:40;55048.53;;;-146.72;56.68
40994;BME280;26722;43.212;27.932;2023-04-15T04:06:06;55033.75;;;-146.72;56.87
40994;BME280;26722;43.212;27.932;2023-04-15T04:08:32;55052.75;;;-146.72;56.50
40994;BME280;26722;43.212;27.932;2023-04-15T04:10:57;55037.97;;;-146.72;56.49
40994;BME280;26722;43.212;27.932;2023-04-15T04:13:23;55037.97;;;-146.72;55.88
40994;BME280;26722;43.212;27.932;2023-04-15T04:15:48;55037.97;;;-146.72;55.01
40994;BME280;26722;43.212;27.932;2023-04-15T04:18:14;55023.19;;;-146.72;55.49
40994;BME280;26722;43.212;27.932;2023-04-15T04:20:39;55035.88;;;-146.72;55.82
40994;BME280;26722;43.212;27.932;2023-04-15T04:23:05;55027.41;;;-146.72;55.88
40994;BME280;26722;43.212;27.932;2023-04-15T04:25:31;55050.66;;;-146.72;56.56
40994;BME280;26722;43.212;27.932;2023-04-15T04:27:57;55035.88;;;-146.72;57.05
40994;BME280;26722;43.212;27.932;2023-04-15T04:30:23;55061.19;;;-146.72;57.22
40994;BME280;26722;43.212;27.932;2023-04-15T04:32:49;55040.09;;;-146.72;57.72
40994;BME280;26722;43.212;27.932;2023-04-15T04:35:15;55050.66;;;-146.72;57.76
40994;BME280;26722;43.212;27.932;2023-04-15T04:37:41;55031.66;;;-146.72;58.23
40994;BME280;26722;43.212;27.932;2023-04-15T04:40:07;55063.31;;;-146.72;58.64
40994;BME280;26722;43.212;27.932;2023-04-15T04:42:33;55035.88;;;-146.72;58.61
40994;BME280;26722;43.212;27.932;2023-04-15T04:44:59;55029.53;;;-146.72;58.66
40994;BME280;26722;43.212;27.932;2023-04-15T04:47:24;55056.97;;;-146.72;58.32
40994;BME280;26722;43.212;27.932;2023-04-15T04:49:50;55033.75;;;-146.72;58.25
40994;BME280;26722;43.212;27.932;2023-04-15T04:52:15;55044.31;;;-146.72;58.29
40994;BME280;26722;43.212;27.932;2023-04-15T04:54:41;55040.09;;;-146.72;58.29
40994;BME280;26722;43.212;27.932;2023-04-15T04:57:06;55010.53;;;-146.72;58.32
40994;BME280;26722;43.212;27.932;2023-04-15T04:59:32;55040.09;;;-146.72;58.26
40994;BME280;26722;43.212;27.932;2023-04-15T05:01:58;55037.97;;;-146.72;58.87
40994;BME280;26722;43.212;27.932;2023-04-15T05:04:24;55050.66;;;-146.72;58.74
40994;BME280;26722;43.212;27.932;2023-04-15T05:06:50;55044.31;;;-146.72;58.65
40994;BME280;26722;43.212;27.932;2023-04-15T05:09:16;55040.09;;;-146.72;58.93
40994;BME280;26722;43.212;27.932;2023-04-15T05:11:42;55040.09;;;-146.72;59.35
40994;BME280;26722;43.212;27.932;2023-04-15T05:14:07;55023.19;;;-146.72;59.04
40994;BME280;26722;43.212;27.932;2023-04-15T05:16:33;55040.09;;;-146.72;59.16
40994;BME280;26722;43.212;27.932;2023-04-15T05:18:58;55040.09;;;-146.72;58.96
40994;BME280;26722;43.212;27.932;2023-04-15T05:21:24;55035.88;;;-146.72;58.97
40994;BME280;26722;43.212;27.932;2023-04-15T05:23:50;55042.19;;;-146.72;58.95
40994;BME280;26722;43.212;27.932;2023-04-15T05:26:16;55046.41;;;-146.72;58.83
40994;BME280;26722;43.212;27.932;2023-04-15T05:28:42;55027.41;;;-146.72;59.24
40994;BME280;26722;43.212;27.932;2023-04-15T05:31:07;55016.88;;;-146.72;58.98
40994;BME280;26722;43.212;27.932;2023-04-15T05:33:33;55021.09;;;-146.72;58.94
40994;BME280;26722;43.212;27.932;2023-04-15T05:35:58;55004.19;;;-146.72;58.62
40994;BME280;26722;43.212;27.932;2023-04-15T05:38:24;55018.97;;;-146.72;58.73
40994;BME280;26722;43.212;27.932;2023-04-15T05:40:50;55044.31;;;-146.72;59.16
40994;BME280;26722;43.212;27.932;2023-04-15T05:43:16;55061.19;;;-146.72;59.30
40994;BME280;26722;43.212;27.932;2023-04-15T05:45:41;55040.09;;;-146.72;59.29
40994;BME280;26722;43.212;27.932;2023-04-15T05:48:07;55031.66;;;-146.72;59.10
40994;BME280;26722;43.212;27.932;2023-04-15T05:50:32;55027.41;;;-146.72;58.99
40994;BME280;26722;43.212;27.932;2023-04-15T05:52:58;55040.09;;;-146.72;59.85
40994;BME280;26722;43.212;27.932;2023-04-15T05:55:23;55031.66;;;-146.72;60.12
40994;BME280;26722;43.212;27.932;2023-04-15T05:57:49;55031.66;;;-146.72;60.16
40994;BME280;26722;43.212;27.932;2023-04-15T06:00:14;55040.09;;;-146.72;60.87
40994;BME280;26722;43.212;27.932;2023-04-15T06:02:40;55025.31;;;-146.72;60.83
40994;BME280;26722;43.212;27.932;2023-04-15T06:05:07;55052.75;;;-146.72;60.85
40994;BME280;26722;43.212;27.932;2023-04-15T06:07:36;55035.88;;;-146.72;61.44
40994;BME280;26722;43.212;27.932;2023-04-15T06:10:03;55035.88;;;-146.72;62.14
40994;BME280;26722;43.212;27.932;2023-04-15T06:12:29;55065.41;;;-146.72;63.42
40994;BME280;26722;43.212;27.932;2023-04-15T06:14:54;55052.75;;;-146.72;64.96
40994;BME280;26722;43.212;27.932;2023-04-15T06:17:20;55054.88;;;-146.72;67.19
40994;BME280;26722;43.212;27.932;2023-04-15T06:19:46;55052.75;;;-146.72;68.61
40994;BME280;26722;43.212;27.932;2023-04-15T06:22:11;55067.53;;;-146.72;69.53
40994;BME280;26722;43.212;27.932;2023-04-15T06:24:37;55082.31;;;-146.72;70.84
40994;BME280;26722;43.212;27.932;2023-04-15T06:27:02;55082.31;;;-146.72;71.48
40994;BME280;26722;43.212;27.932;2023-04-15T06:29:28;55056.97;;;-146.72;72.36
40994;BME280;26722;43.212;27.932;2023-04-15T06:31:54;55071.75;;;-146.72;72.58
40994;BME280;26722;43.212;27.932;2023-04-15T06:34:20;55078.09;;;-146.72;73.03
40994;BME280;26722;43.212;27.932;2023-04-15T06:36:46;55078.09;;;-146.72;73.34
40994;BME280;26722;43.212;27.932;2023-04-15T06:39:12;55086.53;;;-146.72;73.22
40994;BME280;26722;43.212;27.932;2023-04-15T06:41:38;55073.88;;;-146.72;73.61
40994;BME280;26722;43.212;27.932;2023-04-15T06:44:03;55069.66;;;-146.72;73.14
40994;BME280;26722;43.212;27.932;2023-04-15T06:46:29;55071.75;;;-146.72;73.32
40994;BME280;26722;43.212;27.932;2023-04-15T06:48:54;55073.88;;;-146.72;73.01
40994;BME280;26722;43.212;27.932;2023-04-15T06:51:21;55069.66;;;-146.72;73.14
40994;BME280;26722;43.212;27.932;2023-04-15T06:53:48;55046.41;;;-146.72;72.59
40994;BME280;26722;43.212;27.932;2023-04-15T06:56:13;55054.88;;;-146.72;71.71
40994;BME280;26722;43.212;27.932;2023-04-15T06:58:39;55073.88;;;-146.72;71.09
40994;BME280;26722;43.212;27.932;2023-04-15T07:01:04;55073.88;;;-146.72;70.77
40994;BME280;26722;43.212;27.932;2023-04-15T07:03:30;55048.53;;;-146.72;70.82
40994;BME280;26722;43.212;27.932;2023-04-15T07:05:56;55048.53;;;-146.72;70.60
40994;BME280;26722;43.212;27.932;2023-04-15T07:08:22;55035.88;;;-146.72;70.11
40994;BME280;26722;43.212;27.932;2023-04-15T07:10:48;55044.31;;;-146.72;68.49
40994;BME280;26722;43.212;27.932;2023-04-15T07:13:14;55048.53;;;-146.72;67.62
40994;BME280;26722;43.212;27.932;2023-04-15T07:15:40;55050.66;;;-146.72;66.75
40994;BME280;26722;43.212;27.932;2023-04-15T07:18:05;55037.97;;;-146.72;66.23
40994;BME280;26722;43.212;27.932;2023-04-15T07:20:31;55046.41;;;-146.72;67.08
40994;BME280;26722;43.212;27.932;2023-04-15T07:22:56;55031.66;;;-146.72;66.69
40994;BME280;26722;43.212;27.932;2023-04-15T07:25:22;55048.53;;;-146.72;65.19
40994;BME280;26722;43.212;27.932;2023-04-15T07:27:48;55031.66;;;-146.72;64.95
40994;BME280;26722;43.212;27.932;2023-04-15T07:30:14;55031.66;;;-146.72;64.54
40994;BME280;26722;43.212;27.932;2023-04-15T07:32:40;55035.88;;;-146.72;64.49
40994;BME280;26722;43.212;27.932;2023-04-15T07:35:06;55023.19;;;-146.72;64.86
40994;BME280;26722;43.212;27.932;2023-04-15T07:37:32;55010.53;;;-146.72;64.21
40994;BME280;26722;43.212;27.932;2023-04-15T07:39:58;55002.09;;;-146.72;63.01
40994;BME280;26722;43.212;27.932;2023-04-15T07:42:23;55014.75;;;-146.72;62.17
40994;BME280;26722;43.212;27.932;2023-04-15T07:44:49;55010.53;;;-146.72;61.30
40994;BME280;26722;43.212;27.932;2023-04-15T07:47:16;54997.88;;;-146.72;60.26
40994;BME280;26722;43.212;27.932;2023-04-15T07:49:41;55010.53;;;-146.72;60.39
40994;BME280;26722;43.212;27.932;2023-04-15T07:52:08;54985.19;;;-146.72;58.74
40994;BME280;26722;43.212;27.932;2023-04-15T07:54:34;54985.19;;;-146.72;57.63
40994;BME280;26722;43.212;27.932;2023-04-15T07:56:59;54953.53;;;-146.72;56.31
40994;BME280;26722;43.212;27.932;2023-04-15T07:59:25;54978.88;;;-146.72;55.87
40994;BME280;26722;43.212;27.932;2023-04-15T08:01:54;54964.09;;;-146.72;55.01
40994;BME280;26722;43.212;27.932;2023-04-15T08:04:19;54968.31;;;-146.72;55.12
40994;BME280;26722;43.212;27.932;2023-04-15T08:06:45;54951.41;;;-146.72;53.56
40994;BME280;26722;43.212;27.932;2023-04-15T08:09:12;54953.53;;;-146.72;52.25
40994;BME280;26722;43.212;27.932;2023-04-15T08:11:38;54951.41;;;-146.72;52.14
40994;BME280;26722;43.212;27.932;2023-04-15T08:14:03;54938.75;;;-146.72;51.93
40994;BME280;26722;43.212;27.932;2023-04-15T08:16:29;54945.09;;;-146.72;51.57
40994;BME280;26722;43.212;27.932;2023-04-15T08:18:55;54938.75;;;-146.72;51.60
40994;BME280;26722;43.212;27.932;2023-04-15T08:21:21;54945.09;;;-146.72;51.13
40994;BME280;26722;43.212;27.932;2023-04-15T08:23:48;54959.88;;;-146.72;50.88
40994;BME280;26722;43.212;27.932;2023-04-15T08:26:15;54947.19;;;-146.72;50.97
40994;BME280;26722;43.212;27.932;2023-04-15T08:28:41;54959.88;;;-146.72;50.77
40994;BME280;26722;43.212;27.932;2023-04-15T08:31:07;54949.31;;;-146.72;51.40
40994;BME280;26722;43.212;27.932;2023-04-15T08:33:33;54955.63;;;-146.72;50.75
40994;BME280;26722;43.212;27.932;2023-04-15T08:35:59;54951.41;;;-146.72;48.75
40994;BME280;26722;43.212;27.932;2023-04-15T08:38:25;54945.09;;;-146.72;49.02
40994;BME280;26722;43.212;27.932;2023-04-15T08:40:50;54957.75;;;-146.72;49.28
40994;BME280;26722;43.212;27.932;2023-04-15T08:43:21;54959.88;;;-146.72;50.00
40994;BME280;26722;43.212;27.932;2023-04-15T08:45:51;54972.53;;;-146.72;50.50
40994;BME280;26722;43.212;27.932;2023-04-15T08:48:17;54966.19;;;-146.72;50.80
40994;BME280;26722;43.212;27.932;2023-04-15T08:50:45;54976.75;;;-146.72;52.11
40994;BME280;26722;43.212;27.932;2023-04-15T08:53:10;54953.53;;;-146.72;53.26
40994;BME280;26722;43.212;27.932;2023-04-15T08:55:42;54972.53;;;-146.72;52.96
40994;BME280;26722;43.212;27.932;2023-04-15T08:58:09;54972.53;;;-146.72;52.16
40994;BME280;26722;43.212;27.932;2023-04-15T09:00:36;54968.31;;;-146.72;53.28
40994;BME280;26722;43.212;27.932;2023-04-15T09:03:03;54964.09;;;-146.72;54.19
40994;BME280;26722;43.212;27.932;2023-04-15T09:05:33;54955.63;;;-146.72;53.81
40994;BME280;26722;43.212;27.932;2023-04-15T09:08:00;54957.75;;;-146.72;52.70
40994;BME280;26722;43.212;27.932;2023-04-15T09:10:26;54947.19;;;-146.72;52.27
40994;BME280;26722;43.212;27.932;2023-04-15T09:12:52;54955.63;;;-146.72;52.52
40994;BME280;26722;43.212;27.932;2023-04-15T09:15:17;54955.63;;;-146.72;52.28
40994;BME280;26722;43.212;27.932;2023-04-15T09:17:44;54951.41;;;-146.72;51.57
40994;BME280;26722;43.212;27.932;2023-04-15T09:20:12;54934.53;;;-146.72;51.41
40994;BME280;26722;43.212;27.932;2023-04-15T09:22:42;54940.88;;;-146.72;51.07
40994;BME280;26722;43.212;27.932;2023-04-15T09:27:53;54934.53;;;-146.72;50.68
40994;BME280;26722;43.212;27.932;2023-04-15T09:30:19;54949.31;;;-146.72;48.82
40994;BME280;26722;43.212;27.932;2023-04-15T09:32:55;54923.97;;;-146.72;48.77
40994;BME280;26722;43.212;27.932;2023-04-15T09:35:22;54942.97;;;-146.72;46.95
40994;BME280;26722;43.212;27.932;2023-04-15T09:37:49;54940.88;;;-146.72;46.66
40994;BME280;26722;43.212;27.932;2023-04-15T09:40:39;54923.97;;;-146.72;46.46
40994;BME280;26722;43.212;27.932;2023-04-15T09:43:07;54934.53;;;-146.72;46.10
40994;BME280;26722;43.212;27.932;2023-04-15T09:45:33;54900.75;;;-146.72;47.29
40994;BME280;26722;43.212;27.932;2023-04-15T09:50:47;54913.41;;;-146.72;47.81
40994;BME280;26722;43.212;27.932;2023-04-15T09:53:18;54934.53;;;-146.72;48.63
40994;BME280;26722;43.212;27.932;2023-04-15T09:56:04;54926.09;;;-146.72;48.84
40994;BME280;26722;43.212;27.932;2023-04-15T09:58:33;54913.41;;;-146.72;48.47
40994;BME280;26722;43.212;27.932;2023-04-15T10:01:03;54917.63;;;-146.72;47.27
40994;BME280;26722;43.212;27.932;2023-04-15T10:03:32;54934.53;;;-146.72;47.04
40994;BME280;26722;43.212;27.932;2023-04-15T10:05:59;54911.31;;;-146.72;46.63
40994;BME280;26722;43.212;27.932;2023-04-15T10:08:30;54909.19;;;-146.72;46.47
40994;BME280;26722;43.212;27.932;2023-04-15T10:10:57;54913.41;;;-146.72;46.74
40994;BME280;26722;43.212;27.932;2023-04-15T10:13:25;54911.31;;;-146.72;46.73
40994;BME280;26722;43.212;27.932;2023-04-15T10:15:59;54915.53;;;-146.72;46.58
40994;BME280;26722;43.212;27.932;2023-04-15T10:18:27;54915.53;;;-146.72;47.03
40994;BME280;26722;43.212;27.932;2023-04-15T10:20:53;54926.09;;;-146.72;47.29
40994;BME280;26722;43.212;27.932;2023-04-15T10:23:22;54909.19;;;-146.72;46.82
40994;BME280;26722;43.212;27.932;2023-04-15T10:25:51;54909.19;;;-146.72;46.94
40994;BME280;26722;43.212;27.932;2023-04-15T10:28:18;54902.84;;;-146.72;46.45
40994;BME280;26722;43.212;27.932;2023-04-15T10:30:44;54892.31;;;-146.72;45.76
40994;BME280;26722;43.212;27.932;2023-04-15T10:33:12;54892.31;;;-146.72;45.03
40994;BME280;26722;43.212;27.932;2023-04-15T10:35:39;54907.09;;;-146.72;44.04
40994;BME280;26722;43.212;27.932;2023-04-15T10:38:33;54902.84;;;-146.72;43.75
40994;BME280;26722;43.212;27.932;2023-04-15T10:46:33;54896.53;;;-146.72;42.43
40994;BME280;26722;43.212;27.932;2023-04-15T10:49:09;54902.84;;;-146.72;42.77
40994;BME280;26722;43.212;27.932;2023-04-15T10:51:37;54902.84;;;-146.72;42.49
40994;BME280;26722;43.212;27.932;2023-04-15T10:54:12;54898.63;;;-146.72;44.00
40994;BME280;26722;43.212;27.932;2023-04-15T10:56:41;54917.63;;;-146.72;44.02
40994;BME280;26722;43.212;27.932;2023-04-15T10:59:07;54921.88;;;-146.72;44.66
40994;BME280;26722;43.212;27.932;2023-04-15T11:12:43;54953.53;;;-146.72;47.39
40994;BME280;26722;43.212;27.932;2023-04-15T11:18:16;54942.97;;;-146.72;47.75
40994;BME280;26722;43.212;27.932;2023-04-15T11:20:47;54949.31;;;-146.72;47.87
40994;BME280;26722;43.212;27.932;2023-04-15T11:23:16;54936.63;;;-146.72;48.14
40994;BME280;26722;43.212;27.932;2023-04-15T11:25:42;54938.75;;;-146.72;47.32
40994;BME280;26722;43.212;27.932;2023-04-15T11:28:08;54951.41;;;-146.72;47.77
40994;BME280;26722;43.212;27.932;2023-04-15T11:30:34;54955.63;;;-146.72;48.67
40994;BME280;26722;43.212;27.932;2023-04-15T11:33:08;54955.63;;;-146.72;49.54
40994;BME280;26722;43.212;27.932;2023-04-15T11:35:35;54945.09;;;-146.72;49.53
40994;BME280;26722;43.212;27.932;2023-04-15T11:38:04;54959.88;;;-146.72;49.79
40994;BME280;26722;43.212;27.932;2023-04-15T11:40:32;54968.31;;;-146.72;49.00
40994;BME280;26722;43.212;27.932;2023-04-15T11:43:14;54955.63;;;-146.72;49.92
40994;BME280;26722;43.212;27.932;2023-04-15T11:45:57;54961.97;;;-146.72;50.07
40994;BME280;26722;43.212;27.932;2023-04-15T11:48:28;54957.75;;;-146.72;50.54
40994;BME280;26722;43.212;27.932;2023-04-15T11:50:59;54964.09;;;-146.72;50.70
40994;BME280;26722;43.212;27.932;2023-04-15T11:53:36;54970.41;;;-146.72;50.12
40994;BME280;26722;43.212;27.932;2023-04-15T11:56:02;54959.88;;;-146.72;49.99
40994;BME280;26722;43.212;27.932;2023-04-15T11:58:28;54966.19;;;-146.72;49.74
40994;BME280;26722;43.212;27.932;2023-04-15T12:00:57;54959.88;;;-146.72;49.70
40994;BME280;26722;43.212;27.932;2023-04-15T12:03:32;54968.31;;;-146.72;50.07
40994;BME280;26722;43.212;27.932;2023-04-15T12:06:08;54959.88;;;-146.72;50.07
40994;BME280;26722;43.212;27.932;2023-04-15T12:11:39;54949.31;;;-146.72;50.85
40994;BME280;26722;43.212;27.932;2023-04-15T12:16:43;54959.88;;;-146.72;49.91
40994;BME280;26722;43.212;27.932;2023-04-15T12:19:10;54970.41;;;-146.72;50.05
40994;BME280;26722;43.212;27.932;2023-04-15T12:21:39;54970.41;;;-146.72;49.90
40994;BME280;26722;43.212;27.932;2023-04-15T12:24:06;54970.41;;;-146.72;50.49
40994;BME280;26722;43.212;27.932;2023-04-15T12:26:55;54966.19;;;-146.72;49.59
40994;BME280;26722;43.212;27.932;2023-04-15T12:29:26;54953.53;;;-146.72;50.53
40994;BME280;26722;43.212;27.932;2023-04-15T12:31:57;54968.31;;;-146.72;50.18
40994;BME280;26722;43.212;27.932;2023-04-15T12:34:35;54964.09;;;-146.72;49.43
40994;BME280;26722;43.212;27.932;2023-04-15T12:37:03;54964.09;;;-146.72;49.63
40994;BME280;26722;43.212;27.932;2023-04-15T12:39:31;54966.19;;;-146.72;48.68
40994;BME280;26722;43.212;27.932;2023-04-15T12:41:59;54964.09;;;-146.72;49.10
40994;BME280;26722;43.212;27.932;2023-04-15T12:44:25;54964.09;;;-146.72;48.17
40994;BME280;26722;43.212;27.932;2023-04-15T12:46:52;54970.41;;;-146.72;48.51
40994;BME280;26722;43.212;27.932;2023-04-15T12:49:18;54959.88;;;-146.72;47.86
40994;BME280;26722;43.212;27.932;2023-04-15T12:51:49;54955.63;;;-146.72;47.72
40994;BME280;26722;43.212;27.932;2023-04-15T12:54:16;54959.88;;;-146.72;46.99
40994;BME280;26722;43.212;27.932;2023-04-15T12:56:42;54942.97;;;-146.72;47.00
40994;BME280;26722;43.212;27.932;2023-04-15T12:59:08;54964.09;;;-146.72;46.43
40994;BME280;26722;43.212;27.932;2023-04-15T13:01:34;54961.97;;;-146.72;46.46